Terminal Aerodrome Forecast
Issued by NWS Paducah, KY

Home | Current Version | Previous Version | Text Only | Print | Product List | Glossary On
Versions: 1 2 3 4 5 6 7 8 9 10 11 12 13 14 15 16 17 18 19 20
000
FTUS43 KPAH 250936 AAA
TAFEVV
TAF AMD
KEVV 250936Z 2510/2606 VRB02KT 2SM BR SCT250
      TEMPO 2510/2512 1/2SM FG VV002
     FM251400 36005KT P6SM BKN015
     FM251700 36006KT P6SM BKN035
     FM260000 03004KT P6SM SCT040 OVC180=

USA.gov is the U.S. government's official web portal to all federal, state and local government web resources and services.